This is the latest recevied weather packets stored in our database for station/object AI4Y. If no packets are shown the sender has not sent any weather packets the latest 10 day(s).
| Time | Temp. | Humidity | Pressure | Rain* | Wind** | Luminosity | Snow |
|---|---|---|---|---|---|---|---|
| 1777572618 | 20.56° C | 45% | 1010.3 hPa | 0 mm | - | 984 W/m² | - |
| 1777561817 | 17.78° C | 59% | 1012.1 hPa | 0 mm | - | 475 W/m² | - |
| 1777560618 | 16.67° C | 64% | 1011.9 hPa | 0 mm | - | 618 W/m² | - |
| 1777560058 | 16.67° C | 63% | 1012.1 hPa | 0 mm | - | 424 W/m² | - |
| 1777554628 | 13.89° C | 84% | 1011.9 hPa | 0 mm | - | 92 W/m² | - |
| 1777551648 | 12.22° C | 100% | 1012.1 hPa | 0 mm | - | 74 W/m² | - |
| 1777549829 | 11.67° C | 99% | 1011.3 hPa | 0 mm | - | 50 W/m² | - |
| 1777544430 | 11.67° C | 98% | 1010 hPa | 0 mm | - | 0 W/m² | - |
| 1777543230 | 11.11° C | 99% | 1010.3 hPa | 0 mm | - | 0 W/m² | - |
| 1777540816 | 10.56° C | 99% | 1008.9 hPa | 0 mm | - | 0 W/m² | - |
| 1777540216 | 10.56° C | 99% | 1009.4 hPa | 0 mm | - | 0 W/m² | - |
| 1777539616 | 10.56° C | 99% | 1009.1 hPa | 0 mm | - | 0 W/m² | - |
| 1777539016 | 10.56° C | 99% | 1009.4 hPa | 0 mm | - | 0 W/m² | - |
| 1777538436 | 11.11° C | 99% | 1009.5 hPa | 0 mm | - | 0 W/m² | - |
| 1777536017 | 11.11° C | 100% | 1010.2 hPa | 0 mm | - | 0 W/m² | - |
| 1777530618 | 12.78° C | 93% | 1010.5 hPa | 0 mm | - | 0 W/m² | - |
| 1777529419 | 12.78° C | 92% | 1010.6 hPa | 0 mm | - | 0 W/m² | - |
| 1777526419 | 14.44° C | 86% | 1010.5 hPa | 0 mm | - | 0 W/m² | - |
| 1777525820 | 14.44° C | 85% | 1010.4 hPa | 0 mm | - | 0 W/m² | - |
| 1777519221 | 14.44° C | 96% | 1010 hPa | 0 mm | - | 0 W/m² | - |
| 1777518621 | 14.44° C | 98% | 1010.2 hPa | 0 mm | - | 0 W/m² | - |
| 1777516816 | 15° C | 96% | 1009.9 hPa | 0 mm | - | 0 W/m² | - |
| 1777514436 | 15.56° C | 99% | 1010 hPa | 0 mm | - | 0 W/m² | - |
| 1777512637 | 16.67° C | 99% | 1009.9 hPa | 0 mm | - | 0 W/m² | - |
| 1777511417 | 16.67° C | 99% | 1009.7 hPa | 0 mm | - | 0 W/m² | - |
* Rain latest hour (hover to see other rain measurements)
** Current wind speed in m/s (hover to see current wind gust speed)